Time;durP1;ratioP1;P1;durP2;ratioP2;P2;SDS_P1;SDS_P2;PMS_P1;PMS_P2;Temp;Humidity;BMP_temperature;BMP_pressure;BME280_temperature;BME280_humidity;BME280_pressure;Samples;Min_cycle;Max_cycle;Signal;HPM_P1;HPM_P2
2023/12/16 00:01:11;;;;;;;68.18;15.38;;;;;;;-144.73;100.00;54715.59;4983898;28;20337;-73
2023/12/16 00:03:36;;;;;;;73.03;13.20;;;;;;;-144.73;100.00;54744.31;4989963;28;20093;-73
2023/12/16 00:06:02;;;;;;;63.28;13.95;;;;;;;-144.73;100.00;54740.22;4986831;28;20490;-73
2023/12/16 00:08:28;;;;;;;58.63;12.57;;;;;;;-144.73;100.00;54711.47;4974674;28;20125;-73
2023/12/16 00:10:53;;;;;;;63.65;14.45;;;;;;;-144.73;100.00;54754.59;4978617;28;20030;-72
2023/12/16 00:13:19;;;;;;;46.10;12.68;;;;;;;-144.73;100.00;54674.53;4980233;28;20034;-73
2023/12/16 00:15:44;;;;;;;52.70;11.63;;;;;;;-144.73;100.00;54732.00;4981150;28;20097;-73
2023/12/16 00:18:10;;;;;;;66.95;12.68;;;;;;;-144.73;100.00;54756.66;4978913;28;20042;-73
2023/12/16 00:20:35;;;;;;;70.47;15.10;;;;;;;-144.73;100.00;54717.66;4979838;28;20071;-74
2023/12/16 00:23:00;;;;;;;66.43;14.73;;;;;;;-144.73;100.00;54764.84;4980503;28;20066;-73
2023/12/16 00:25:26;;;;;;;73.30;12.82;;;;;;;-144.73;100.00;54715.59;4977938;28;20030;-73
2023/12/16 00:27:52;;;;;;;67.63;14.02;;;;;;;-144.73;100.00;54740.22;4975677;28;20034;-71
2023/12/16 00:30:17;;;;;;;69.80;13.60;;;;;;;-144.73;100.00;54713.53;4983656;28;20038;-72
2023/12/16 00:32:43;;;;;;;59.47;13.35;;;;;;;-144.73;100.00;54736.13;4980269;28;20038;-73
2023/12/16 00:35:09;;;;;;;45.33;11.85;;;;;;;-144.73;100.00;54723.81;4982803;28;20030;-73
2023/12/16 00:37:35;;;;;;;55.92;12.98;;;;;;;-144.73;100.00;54703.28;4973419;28;20150;-72
2023/12/16 00:40:02;;;;;;;51.38;12.27;;;;;;;-144.73;100.00;54707.38;4972043;28;20031;-73
2023/12/16 00:42:27;;;;;;;70.38;14.13;;;;;;;-144.73;100.00;54719.69;4980679;28;20038;-73
2023/12/16 00:44:53;;;;;;;74.38;13.52;;;;;;;-144.73;100.00;54736.13;4976934;28;20109;-73
2023/12/16 00:47:19;;;;;;;71.13;14.50;;;;;;;-144.73;100.00;54707.38;4973521;28;20055;-73
2023/12/16 00:49:44;;;;;;;53.78;12.80;;;;;;;-144.73;100.00;54736.13;4974625;28;20062;-73
2023/12/16 00:52:10;;;;;;;68.72;13.65;;;;;;;-144.73;100.00;54715.59;4978507;28;20734;-73
2023/12/16 00:54:35;;;;;;;60.20;14.88;;;;;;;-144.73;100.00;54756.66;4972405;28;20117;-73
2023/12/16 00:57:00;;;;;;;60.90;12.82;;;;;;;-144.73;100.00;54736.13;4976915;28;20034;-72
2023/12/16 00:59:26;;;;;;;58.38;13.25;;;;;;;-144.73;100.00;54748.44;4980061;28;20118;-73
2023/12/16 01:01:52;;;;;;;61.78;12.77;;;;;;;-144.73;100.00;54785.38;4993760;28;20048;-73
2023/12/16 01:04:17;;;;;;;74.15;12.80;;;;;;;-144.73;100.00;54732.00;4980724;28;20027;-73
2023/12/16 01:06:43;;;;;;;63.35;13.50;;;;;;;-144.73;100.00;54736.13;4975071;28;20027;-73
2023/12/16 01:09:10;;;;;;;64.60;13.18;;;;;;;-144.73;100.00;54703.28;4979002;28;20030;-73
2023/12/16 01:11:40;;;;;;;58.00;12.75;;;;;;;-144.73;100.00;54719.69;4985784;28;20023;-73
2023/12/16 01:14:09;;;;;;;61.60;12.95;;;;;;;-144.73;100.00;54707.38;4985414;28;20074;-73
2023/12/16 01:16:34;;;;;;;67.25;13.23;;;;;;;-144.73;100.00;54736.13;4982217;28;20038;-73
2023/12/16 01:19:00;;;;;;;70.75;12.65;;;;;;;-144.73;100.00;54723.81;4976018;28;20034;-73
2023/12/16 01:21:25;;;;;;;64.60;10.75;;;;;;;-144.73;100.00;54715.59;4977098;28;20053;-73
2023/12/16 01:23:51;;;;;;;60.10;12.80;;;;;;;-144.73;100.00;54707.38;4979634;28;20050;-73
2023/12/16 01:26:16;;;;;;;62.28;12.20;;;;;;;-144.73;100.00;54701.22;4973714;28;20034;-73
2023/12/16 01:28:42;;;;;;;64.40;12.55;;;;;;;-144.73;100.00;54715.59;4977547;28;20062;-73
2023/12/16 01:31:08;;;;;;;58.60;10.57;;;;;;;-144.73;100.00;54699.16;4980489;28;20041;-72
2023/12/16 01:33:33;;;;;;;49.70;11.35;;;;;;;-144.73;100.00;54748.44;4978252;28;20034;-72
2023/12/16 01:35:59;;;;;;;64.15;11.60;;;;;;;-144.73;100.00;54758.69;4978723;28;20027;-74
2023/12/16 01:38:24;;;;;;;53.70;11.80;;;;;;;-144.73;100.00;54711.47;4980463;28;20026;-71
2023/12/16 01:40:49;;;;;;;57.08;11.77;;;;;;;-144.73;100.00;54686.84;4978761;28;20121;-73
2023/12/16 01:43:15;;;;;;;48.83;10.25;;;;;;;-144.73;100.00;54686.84;4976793;28;20523;-73
2023/12/16 01:45:40;;;;;;;55.58;11.18;;;;;;;-144.73;100.00;54725.84;4981618;28;20045;-73
2023/12/16 01:48:08;;;;;;;73.40;11.20;;;;;;;-144.73;100.00;54744.31;4979711;28;20038;-73
2023/12/16 01:50:33;;;;;;;51.80;9.45;;;;;;;-144.73;100.00;54727.91;4974276;28;20022;-73
2023/12/16 01:52:59;;;;;;;60.58;10.35;;;;;;;-144.73;100.00;54727.91;4972462;28;20086;-73
2023/12/16 01:55:25;;;;;;;65.13;11.90;;;;;;;-144.73;100.00;54748.44;4971275;28;20095;-73
2023/12/16 01:57:52;;;;;;;47.85;11.30;;;;;;;-144.73;100.00;54760.75;4979929;28;20390;-73
2023/12/16 02:00:20;;;;;;;51.00;10.40;;;;;;;-144.73;100.00;54713.53;4983116;28;20456;-73
2023/12/16 02:02:46;;;;;;;50.15;9.50;;;;;;;-144.73;100.00;54686.84;4986591;28;20072;-73
2023/12/16 02:05:12;;;;;;;41.30;9.43;;;;;;;-144.73;100.00;54736.13;4973955;28;20090;-73
2023/12/16 02:07:37;;;;;;;42.60;9.15;;;;;;;-144.73;100.00;54723.81;4978988;28;20172;-73
2023/12/16 02:10:06;;;;;;;53.97;9.70;;;;;;;-144.73;100.00;54723.81;4980012;28;20070;-73
2023/12/16 02:12:35;;;;;;;45.80;9.40;;;;;;;-144.73;100.00;54727.91;4981740;28;20090;-73
2023/12/16 02:15:02;;;;;;;47.75;8.25;;;;;;;-144.73;100.00;54690.97;4980220;28;20045;-74
2023/12/16 02:17:27;;;;;;;42.70;7.57;;;;;;;-144.73;100.00;54725.84;4976997;28;20035;-73
2023/12/16 02:19:54;;;;;;;53.47;8.95;;;;;;;-144.73;100.00;54736.13;4978776;28;20145;-73
2023/12/16 02:22:20;;;;;;;44.10;8.02;;;;;;;-144.73;100.00;54695.06;4976992;28;20069;-74
2023/12/16 02:24:47;;;;;;;52.50;8.35;;;;;;;-144.73;100.00;54719.69;4980848;28;20038;-73
2023/12/16 02:27:12;;;;;;;42.92;8.18;;;;;;;-144.73;100.00;54682.75;4975307;28;20042;-73
2023/12/16 02:29:38;;;;;;;42.55;8.57;;;;;;;-144.73;100.00;54756.66;4971047;28;20093;-73
2023/12/16 02:32:04;;;;;;;34.88;8.55;;;;;;;-144.73;100.00;54756.66;4984576;28;20042;-73
2023/12/16 02:34:30;;;;;;;53.55;11.20;;;;;;;-144.73;100.00;54732.00;4982527;28;20031;-73
2023/12/16 02:36:55;;;;;;;45.70;8.57;;;;;;;-144.73;100.00;54727.91;4970154;28;20027;-72
2023/12/16 02:39:21;;;;;;;37.78;8.10;;;;;;;-144.73;100.00;54713.53;4980882;28;20030;-72
2023/12/16 02:41:46;;;;;;;55.22;9.38;;;;;;;-144.73;100.00;54711.47;4978713;28;20037;-72
2023/12/16 02:44:12;;;;;;;53.60;9.90;;;;;;;-144.73;100.00;54740.22;4986800;28;20053;-72
2023/12/16 02:46:37;;;;;;;35.97;8.15;;;;;;;-144.73;100.00;54764.84;4974965;28;20054;-73
2023/12/16 02:49:03;;;;;;;49.60;7.05;;;;;;;-144.73;100.00;54760.75;4971128;28;20043;-72
2023/12/16 02:51:29;;;;;;;36.42;6.95;;;;;;;-144.73;100.00;54732.00;4977891;28;20034;-73
2023/12/16 02:53:58;;;;;;;40.90;8.98;;;;;;;-144.73;100.00;54707.38;4980812;28;20126;-72
2023/12/16 02:56:23;;;;;;;34.90;6.93;;;;;;;-144.73;100.00;54715.59;4977028;28;20054;-73
2023/12/16 02:58:49;;;;;;;41.38;7.72;;;;;;;-144.73;100.00;54748.44;4977269;28;20066;-73
2023/12/16 03:01:17;;;;;;;37.35;7.22;;;;;;;-144.73;100.00;54727.91;4983950;28;20030;-74
2023/12/16 03:03:42;;;;;;;47.08;7.30;;;;;;;-144.73;100.00;54740.22;4975486;28;20054;-73
2023/12/16 03:06:08;;;;;;;36.58;6.35;;;;;;;-144.73;100.00;54658.13;4978402;28;20034;-73
2023/12/16 03:08:50;;;;;;;;;;;;;;;;;;;;;
2023/12/16 03:11:15;;;;;;;;;;;;;;;-144.73;100.00;54727.91;4983135;28;20037;-74
2023/12/16 03:13:41;;;;;;;37.90;5.55;;;;;;;-144.73;100.00;54715.59;4979541;28;19918;-74
2023/12/16 03:16:06;;;;;;;43.80;6.03;;;;;;;-144.73;100.00;54760.75;4980336;28;20045;-71
2023/12/16 03:18:32;;;;;;;36.65;6.38;;;;;;;-144.73;100.00;54705.31;4979818;28;20046;-74
2023/12/16 03:20:57;;;;;;;32.63;6.13;;;;;;;-144.73;100.00;54711.47;4981743;28;20034;-72
2023/12/16 03:23:25;;;;;;;33.78;5.13;;;;;;;-144.73;100.00;54723.81;4981629;28;20038;-73
2023/12/16 03:25:50;;;;;;;33.17;6.07;;;;;;;-144.73;100.00;54748.44;4979712;28;20034;-73
2023/12/16 03:28:15;;;;;;;34.65;5.93;;;;;;;-144.73;100.00;54736.13;4980647;28;20047;-73
2023/12/16 03:30:41;;;;;;;29.60;6.40;;;;;;;-144.73;100.00;54727.91;4979040;28;20027;-72
2023/12/16 03:33:07;;;;;;;30.25;5.05;;;;;;;-144.73;100.00;54703.28;4984653;28;20047;-73
2023/12/16 03:35:36;;;;;;;25.70;5.25;;;;;;;-144.73;100.00;54707.38;4977641;28;20126;-73
2023/12/16 03:38:02;;;;;;;31.60;5.03;;;;;;;-144.73;100.00;54740.22;4978120;28;20039;-72
2023/12/16 03:40:29;;;;;;;31.83;5.30;;;;;;;-144.73;100.00;54670.44;4984671;28;20026;-72
2023/12/16 03:42:55;;;;;;;31.95;4.55;;;;;;;-144.73;100.00;54723.81;4978852;28;20046;-73
2023/12/16 03:45:20;;;;;;;20.35;3.85;;;;;;;-144.73;100.00;54672.47;4977726;28;20031;-73
2023/12/16 03:47:46;;;;;;;35.28;4.65;;;;;;;-144.73;100.00;54736.13;4981548;28;20053;-73
2023/12/16 03:50:11;;;;;;;32.53;4.97;;;;;;;-144.73;100.00;54711.47;4988619;28;20030;-73
2023/12/16 03:52:37;;;;;;;30.55;5.35;;;;;;;-144.73;100.00;54734.06;4991504;28;20038;-73
2023/12/16 03:55:05;;;;;;;24.52;5.20;;;;;;;-144.73;100.00;54727.91;4987072;28;20118;-73
2023/12/16 03:57:32;;;;;;;33.17;6.03;;;;;;;-144.73;100.00;54713.53;4982491;28;20030;-72
2023/12/16 03:59:58;;;;;;;29.02;4.80;;;;;;;-144.73;100.00;54717.66;4983224;28;20042;-73
2023/12/16 04:02:23;;;;;;;23.95;5.13;;;;;;;-144.73;100.00;54723.81;4986129;28;20452;-73
2023/12/16 04:04:49;;;;;;;22.02;4.35;;;;;;;-144.73;100.00;54725.84;4981914;28;20035;-73
2023/12/16 04:07:14;;;;;;;25.98;4.82;;;;;;;-144.73;100.00;54744.31;4984426;28;20149;-73
2023/12/16 04:09:40;;;;;;;30.67;5.40;;;;;;;-144.73;100.00;54703.28;4984249;28;20027;-73
2023/12/16 04:12:06;;;;;;;27.38;5.30;;;;;;;-144.73;100.00;54744.31;4982568;28;20031;-73
2023/12/16 04:14:38;;;;;;;26.70;4.60;;;;;;;-144.73;100.00;54707.38;4990980;28;20015;-73
2023/12/16 04:17:04;;;;;;;33.92;4.35;;;;;;;-144.73;100.00;54727.91;4981345;28;20046;-73
2023/12/16 04:19:30;;;;;;;19.95;4.90;;;;;;;-144.73;100.00;54690.97;4985520;28;20026;-74
2023/12/16 04:21:58;;;;;;;30.50;5.38;;;;;;;-144.73;100.00;54699.16;4983904;28;20030;-72
2023/12/16 04:24:23;;;;;;;31.38;5.65;;;;;;;-144.73;100.00;54711.47;4990408;28;20019;-72
2023/12/16 04:26:49;;;;;;;26.85;4.75;;;;;;;-144.73;100.00;54707.38;4979796;28;20019;-73
2023/12/16 04:29:15;;;;;;;26.27;4.82;;;;;;;-144.73;100.00;54727.91;4979152;28;20088;-73
2023/12/16 04:31:48;;;;;;;28.05;5.47;;;;;;;-144.73;100.00;54752.53;4978236;28;20058;-73
2023/12/16 04:34:14;;;;;;;24.77;4.63;;;;;;;-144.73;100.00;54715.59;4980958;28;20065;-73
2023/12/16 04:36:39;;;;;;;28.98;5.97;;;;;;;-144.73;100.00;54752.53;4980126;28;20022;-74
2023/12/16 04:39:07;;;;;;;28.63;5.47;;;;;;;-144.73;100.00;54764.84;4975308;28;20406;-74
2023/12/16 04:41:33;;;;;;;35.38;5.97;;;;;;;-144.73;100.00;54695.06;4982611;28;20113;-73
2023/12/16 04:43:58;;;;;;;33.97;6.22;;;;;;;-144.73;100.00;54690.97;4975993;28;20150;-72
2023/12/16 04:46:24;;;;;;;28.52;5.90;;;;;;;-144.73;100.00;54695.06;4981607;28;20094;-72
2023/12/16 04:48:49;;;;;;;31.27;4.93;;;;;;;-144.73;100.00;54711.47;4981677;28;20124;-72
2023/12/16 04:51:15;;;;;;;24.05;4.85;;;;;;;-144.73;100.00;54695.06;4979738;28;20166;-73
2023/12/16 04:53:40;;;;;;;33.10;6.05;;;;;;;-144.73;100.00;54699.16;4980997;28;20034;-72
2023/12/16 04:56:06;;;;;;;36.92;5.97;;;;;;;-144.73;100.00;54707.38;4982963;28;20062;-72
2023/12/16 04:58:32;;;;;;;25.67;5.25;;;;;;;-144.73;100.00;54744.31;4984112;28;20035;-72
2023/12/16 05:00:57;;;;;;;30.13;5.18;;;;;;;-144.73;100.00;54711.47;4981659;28;20034;-72
2023/12/16 05:03:22;;;;;;;23.30;4.90;;;;;;;-144.73;100.00;54703.28;4985947;28;20043;-71
2023/12/16 05:05:48;;;;;;;34.05;5.78;;;;;;;-144.73;100.00;54682.75;4985626;28;20052;-71
2023/12/16 05:08:14;;;;;;;25.23;6.18;;;;;;;-144.73;100.00;54729.97;4983202;28;20188;-72
2023/12/16 05:10:40;;;;;;;28.77;5.85;;;;;;;-144.73;100.00;54699.16;4981067;28;20061;-72
2023/12/16 05:13:09;;;;;;;31.45;5.60;;;;;;;-144.73;100.00;54732.00;4986772;28;20109;-72
2023/12/16 05:15:37;;;;;;;38.50;6.38;;;;;;;-144.73;100.00;54699.16;4986063;28;20027;-72
2023/12/16 05:18:02;;;;;;;23.85;4.07;;;;;;;-144.73;100.00;54707.38;4978675;28;20068;-72
2023/12/16 05:20:27;;;;;;;32.17;6.13;;;;;;;-144.73;100.00;54699.16;4988660;28;20038;-73
2023/12/16 05:22:53;;;;;;;32.95;6.05;;;;;;;-144.73;100.00;54699.16;4985963;28;20041;-72
2023/12/16 05:25:18;;;;;;;29.05;6.28;;;;;;;-144.73;100.00;54707.38;4982758;28;20031;-73
2023/12/16 05:27:43;;;;;;;22.27;4.40;;;;;;;-144.73;100.00;54721.75;4988000;28;20046;-71
2023/12/16 05:30:10;;;;;;;28.88;5.63;;;;;;;-144.73;100.00;54703.28;4979757;28;20480;-71
2023/12/16 05:32:35;;;;;;;22.00;4.25;;;;;;;-144.73;100.00;54736.13;4982771;28;20041;-71
2023/12/16 05:35:00;;;;;;;32.40;6.18;;;;;;;-144.73;100.00;54707.38;4981990;28;20026;-72
2023/12/16 05:37:26;;;;;;;30.73;5.05;;;;;;;-144.73;100.00;54723.81;4976743;28;20042;-72
2023/12/16 05:39:51;;;;;;;28.17;4.95;;;;;;;-144.73;100.00;54682.75;4971256;28;20030;-71
2023/12/16 05:42:16;;;;;;;23.13;4.35;;;;;;;-144.73;100.00;54721.75;4977097;28;20450;-72
2023/12/16 05:44:42;;;;;;;30.35;5.22;;;;;;;-144.73;100.00;54715.59;4986723;28;20029;-72
2023/12/16 05:47:08;;;;;;;24.02;4.25;;;;;;;-144.73;100.00;54723.81;4974563;28;20035;-72
2023/12/16 05:49:33;;;;;;;24.85;5.30;;;;;;;-144.73;100.00;54719.69;4976812;28;20026;-71
2023/12/16 05:51:59;;;;;;;20.02;4.55;;;;;;;-144.73;100.00;54697.13;4978302;28;20042;-71
2023/12/16 05:54:24;;;;;;;33.92;5.15;;;;;;;-144.73;100.00;54670.44;4978118;28;20022;-73
2023/12/16 05:56:50;;;;;;;27.73;4.78;;;;;;;-144.73;100.00;54727.91;4977753;28;20033;-73
2023/12/16 05:59:15;;;;;;;24.67;4.45;;;;;;;-144.73;100.00;54699.16;4974505;28;20033;-73
2023/12/16 06:01:40;;;;;;;30.35;4.93;;;;;;;-144.73;100.00;54723.81;4984359;28;20029;-73
2023/12/16 06:04:06;;;;;;;23.92;4.43;;;;;;;-144.73;100.00;54738.16;4977513;28;20045;-72
2023/12/16 06:06:31;;;;;;;31.52;5.95;;;;;;;-144.73;100.00;54699.16;4975755;28;20031;-71
2023/12/16 06:08:57;;;;;;;31.73;4.75;;;;;;;-144.73;100.00;54699.16;4981062;28;20528;-72
2023/12/16 06:11:23;;;;;;;23.02;4.30;;;;;;;-144.73;100.00;54703.28;4986103;28;20478;-71
2023/12/16 06:13:50;;;;;;;22.55;4.53;;;;;;;-144.73;100.00;54699.16;4976502;28;20084;-72
2023/12/16 06:16:16;;;;;;;22.58;3.90;;;;;;;-144.73;100.00;54736.13;4979885;28;20048;-71
2023/12/16 06:18:42;;;;;;;22.52;4.22;;;;;;;-144.73;100.00;54695.06;4982662;28;20038;-72
2023/12/16 06:21:09;;;;;;;21.33;4.40;;;;;;;-144.73;100.00;54748.44;4979168;28;20034;-72
2023/12/16 06:23:34;;;;;;;26.58;4.03;;;;;;;-144.73;100.00;54740.22;4981138;28;20042;-72
2023/12/16 06:26:00;;;;;;;18.27;4.35;;;;;;;-144.73;100.00;54695.06;4978271;28;20034;-72
2023/12/16 06:28:26;;;;;;;23.63;4.18;;;;;;;-144.73;100.00;54740.22;4977137;28;20050;-72
2023/12/16 06:30:51;;;;;;;15.30;3.83;;;;;;;-144.73;100.00;54756.66;4985426;28;20034;-72
2023/12/16 06:33:16;;;;;;;24.08;4.18;;;;;;;-144.73;100.00;54703.28;4984448;28;20490;-73
2023/12/16 06:35:42;;;;;;;22.02;4.50;;;;;;;-144.73;100.00;54727.91;4986652;28;20027;-72
2023/12/16 06:38:07;;;;;;;21.27;3.70;;;;;;;-144.73;100.00;54703.28;4976016;28;20046;-72
2023/12/16 06:40:33;;;;;;;26.45;4.13;;;;;;;-144.73;100.00;54727.91;4975371;28;20030;-72
2023/12/16 06:42:58;;;;;;;26.48;3.92;;;;;;;-144.73;100.00;54721.75;4978726;28;20532;-72
2023/12/16 06:45:23;;;;;;;14.23;3.35;;;;;;;-144.73;100.00;54705.31;4982436;28;20034;-72
2023/12/16 06:47:48;;;;;;;26.63;4.13;;;;;;;-144.73;100.00;54744.31;4974490;28;20030;-72
2023/12/16 06:50:14;;;;;;;27.73;5.32;;;;;;;-144.73;100.00;54748.44;4977041;28;20027;-72
2023/12/16 06:52:39;;;;;;;20.25;3.97;;;;;;;-144.73;100.00;54699.16;4982211;28;20498;-72
2023/12/16 06:55:05;;;;;;;16.13;4.15;;;;;;;-144.73;100.00;54658.13;4972939;28;20030;-72
2023/12/16 06:57:31;;;;;;;36.30;5.13;;;;;;;-144.73;100.00;54711.47;4975053;28;20031;-72
2023/12/16 06:59:56;;;;;;;22.75;5.82;;;;;;;-144.73;100.00;54719.69;4982920;28;20041;-73
2023/12/16 07:02:21;;;;;;;28.67;4.43;;;;;;;-144.73;100.00;54713.53;4974911;28;20114;-74
2023/12/16 07:04:47;;;;;;;19.92;4.07;;;;;;;-144.73;100.00;54732.00;4980268;28;20112;-72
2023/12/16 07:07:12;;;;;;;18.45;3.95;;;;;;;-144.73;100.00;54699.16;4979365;28;20067;-72
2023/12/16 07:09:41;;;;;;;19.83;4.25;;;;;;;-144.73;100.00;54688.91;4977364;28;20029;-72
2023/12/16 07:12:06;;;;;;;22.83;5.25;;;;;;;-144.73;100.00;54699.16;4977905;28;20030;-72
2023/12/16 07:14:34;;;;;;;22.35;4.97;;;;;;;-144.73;100.00;54732.00;4977376;28;20033;-72
2023/12/16 07:17:00;;;;;;;23.10;5.07;;;;;;;-144.73;100.00;54651.97;4974155;28;20064;-72
2023/12/16 07:19:27;;;;;;;27.95;4.18;;;;;;;-144.73;100.00;54740.22;4980864;28;20026;-71
2023/12/16 07:21:53;;;;;;;29.60;4.68;;;;;;;-144.73;100.00;54682.75;4978576;28;20026;-71
2023/12/16 07:24:19;;;;;;;31.02;4.18;;;;;;;-144.73;100.00;54711.47;4978267;28;20026;-71
2023/12/16 07:26:44;;;;;;;20.35;4.28;;;;;;;-144.73;100.00;54686.84;4983512;28;20117;-71
2023/12/16 07:29:10;;;;;;;30.42;6.15;;;;;;;-144.73;100.00;54699.16;4977517;28;20032;-72
2023/12/16 07:31:35;;;;;;;35.42;5.53;;;;;;;-144.73;100.00;54682.75;4987757;28;20053;-71
2023/12/16 07:34:03;;;;;;;36.15;5.43;;;;;;;-144.73;100.00;54707.38;4979077;28;20037;-72
2023/12/16 07:36:28;;;;;;;31.85;5.10;;;;;;;-144.73;100.00;54736.13;4983007;28;20513;-72
2023/12/16 07:38:55;;;;;;;23.42;4.60;;;;;;;-144.73;100.00;54719.69;4982489;28;20066;-72
2023/12/16 07:41:21;;;;;;;30.20;5.38;;;;;;;-144.73;100.00;54715.59;4980527;28;20027;-70
2023/12/16 07:43:46;;;;;;;23.33;5.20;;;;;;;-144.73;100.00;54695.06;4975413;28;20062;-69
2023/12/16 07:46:12;;;;;;;30.92;4.88;;;;;;;-144.73;100.00;54719.69;4979744;28;20027;-70
2023/12/16 07:48:37;;;;;;;32.03;5.18;;;;;;;-144.73;100.00;54676.59;4976416;28;20046;-70
2023/12/16 07:51:03;;;;;;;29.00;4.65;;;;;;;-144.73;100.00;54742.28;4981686;28;20524;-70
2023/12/16 07:53:28;;;;;;;30.98;5.07;;;;;;;-144.73;100.00;54723.81;4976718;28;20039;-70
2023/12/16 07:55:53;;;;;;;29.42;5.13;;;;;;;-144.73;100.00;54695.06;4977130;28;20394;-70
2023/12/16 07:58:19;;;;;;;26.77;4.72;;;;;;;-144.73;100.00;54690.97;4977521;28;20529;-70
2023/12/16 08:00:45;;;;;;;22.55;4.97;;;;;;;-144.73;100.00;54707.38;4975221;28;20034;-70
2023/12/16 08:03:10;;;;;;;25.95;5.55;;;;;;;-144.73;100.00;54715.59;4985426;28;20053;-69
2023/12/16 08:05:36;;;;;;;39.00;6.75;;;;;;;-144.73;100.00;54703.28;4975038;28;20026;-70
2023/12/16 08:08:01;;;;;;;34.15;5.65;;;;;;;-144.73;100.00;54670.44;4980478;28;20122;-70
2023/12/16 08:10:26;;;;;;;34.00;5.47;;;;;;;-144.73;100.00;54686.84;4979524;28;20034;-70
2023/12/16 08:12:52;;;;;;;40.90;5.43;;;;;;;-144.73;100.00;54732.00;4983060;28;20039;-71
2023/12/16 08:15:17;;;;;;;27.40;5.20;;;;;;;-144.73;100.00;54715.59;4982187;28;20027;-70
2023/12/16 08:17:42;;;;;;;45.53;5.78;;;;;;;-144.73;100.00;54727.91;4982905;28;20070;-70
2023/12/16 08:20:08;;;;;;;33.33;5.68;;;;;;;-144.73;100.00;54711.47;4980202;28;20037;-70
2023/12/16 08:22:34;;;;;;;48.97;5.53;;;;;;;-144.73;100.00;54707.38;4979203;28;20034;-70
2023/12/16 08:24:59;;;;;;;32.30;5.13;;;;;;;-144.73;100.00;54699.16;4976598;28;20117;-70
2023/12/16 08:27:25;;;;;;;41.25;7.28;;;;;;;-144.73;100.00;54719.69;4980684;28;20046;-70
2023/12/16 08:29:50;;;;;;;39.78;6.35;;;;;;;-144.73;100.00;54732.00;4979849;28;20026;-71
2023/12/16 08:32:16;;;;;;;33.63;6.00;;;;;;;-144.73;100.00;54719.69;4979277;28;20035;-70
2023/12/16 08:34:41;;;;;;;32.15;5.95;;;;;;;-144.73;100.00;54695.06;4984262;28;20082;-70
2023/12/16 08:37:07;;;;;;;31.92;6.47;;;;;;;-144.73;100.00;54703.28;4978919;28;20041;-70
2023/12/16 08:39:32;;;;;;;34.70;6.50;;;;;;;-144.73;100.00;54682.75;4985833;28;20494;-70
2023/12/16 08:41:58;;;;;;;34.38;6.28;;;;;;;-144.73;100.00;54703.28;4977641;28;20030;-70
2023/12/16 08:44:23;;;;;;;40.45;6.32;;;;;;;-144.73;100.00;54690.97;4978604;28;20027;-71
2023/12/16 08:46:49;;;;;;;33.28;5.90;;;;;;;-144.73;100.00;54699.16;4983182;28;20153;-69
2023/12/16 08:49:14;;;;;;;31.70;5.50;;;;;;;-144.73;100.00;54715.59;4977791;28;20022;-70
2023/12/16 08:51:40;;;;;;;40.75;7.40;;;;;;;-144.73;100.00;54699.16;4982754;28;20037;-69
2023/12/16 08:54:05;;;;;;;29.15;6.25;;;;;;;-144.73;100.00;54695.06;4982829;28;20027;-69
2023/12/16 08:56:31;;;;;;;41.42;6.20;;;;;;;-144.73;100.00;54682.75;4980064;28;20496;-69
2023/12/16 08:58:56;;;;;;;40.65;6.22;;;;;;;-144.73;100.00;54723.81;4977372;28;20045;-70
2023/12/16 09:01:21;;;;;;;24.80;6.72;;;;;;;-144.73;100.00;54695.06;4985064;28;20050;-70
2023/12/16 09:03:47;;;;;;;23.90;7.07;;;;;;;-144.73;100.00;54690.97;4979089;28;20043;-71
2023/12/16 09:06:16;;;;;;;33.75;7.97;;;;;;;-144.73;100.00;54711.47;4981336;28;20486;-70
2023/12/16 09:08:41;;;;;;;32.25;7.63;;;;;;;-144.73;100.00;54682.75;4977841;28;20039;-69
2023/12/16 09:11:06;;;;;;;38.22;7.40;;;;;;;-144.73;100.00;54713.53;4981646;28;20030;-70
2023/12/16 09:13:32;;;;;;;48.40;8.65;;;;;;;-144.73;100.00;54686.84;4976283;28;20074;-70
2023/12/16 09:15:58;;;;;;;50.40;10.63;;;;;;;-144.73;100.00;54699.16;4975629;28;20022;-70
2023/12/16 09:18:23;;;;;;;44.28;9.35;;;;;;;-144.73;100.00;54662.22;4976988;28;20051;-69
2023/12/16 09:20:49;;;;;;;39.55;10.15;;;;;;;-144.73;100.00;54727.91;4977495;28;20118;-69
2023/12/16 09:23:14;;;;;;;33.92;9.73;;;;;;;-144.73;100.00;54744.31;4978450;28;20038;-69
2023/12/16 09:25:39;;;;;;;31.08;8.85;;;;;;;-144.73;100.00;54707.38;4976228;28;20054;-70
2023/12/16 09:28:05;;;;;;;38.10;9.85;;;;;;;-144.73;100.00;54686.84;4979872;28;20046;-70
2023/12/16 09:30:31;;;;;;;35.22;10.10;;;;;;;-144.73;100.00;54742.28;4981225;28;20378;-70
2023/12/16 09:32:56;;;;;;;30.90;9.90;;;;;;;-144.73;100.00;54727.91;4977398;28;20042;-68
2023/12/16 09:35:21;;;;;;;48.83;11.95;;;;;;;-144.73;100.00;54699.16;4979382;28;20056;-71
2023/12/16 09:37:48;;;;;;;33.78;12.07;;;;;;;-144.73;100.00;54711.47;4979450;28;20465;-69
2023/12/16 09:40:14;;;;;;;42.67;11.02;;;;;;;-144.73;100.00;54717.66;4981499;28;20022;-71
2023/12/16 09:42:43;;;;;;;42.25;12.13;;;;;;;-144.73;100.00;54711.47;4983012;28;20124;-69
2023/12/16 09:45:12;;;;;;;35.58;12.40;;;;;;;-144.73;100.00;54709.44;4974982;28;20034;-71
2023/12/16 09:47:38;;;;;;;42.53;12.52;;;;;;;-144.73;100.00;54688.91;4976092;28;20031;-68
2023/12/16 09:50:04;;;;;;;41.03;12.68;;;;;;;-144.73;100.00;54690.97;4968437;28;20409;-69
2023/12/16 09:52:30;;;;;;;38.78;13.70;;;;;;;-144.73;100.00;54709.44;4952663;28;20089;-69
2023/12/16 09:54:55;;;;;;;41.08;13.93;;;;;;;-144.73;100.00;54686.84;4977644;28;20098;-70
2023/12/16 09:57:23;;;;;;;38.67;14.18;;;;;;;-144.73;100.00;54703.28;4977480;28;20022;-71
2023/12/16 09:59:51;;;;;;;45.05;16.00;;;;;;;-144.73;100.00;54715.59;4971960;28;20114;-69
2023/12/16 10:02:25;;;;;;;45.40;15.73;;;;;;;-144.73;100.00;54719.69;4982562;28;20038;-69
2023/12/16 10:04:52;;;;;;;49.13;16.20;;;;;;;-144.73;100.00;54719.69;4980125;28;20049;-69
2023/12/16 10:07:18;;;;;;;42.47;16.13;;;;;;;-144.73;100.00;54707.38;4971365;28;20129;-69
2023/12/16 10:09:43;;;;;;;38.13;18.15;;;;;;;-144.73;100.00;54707.38;4972279;28;20208;-69
2023/12/16 10:12:10;;;;;;;39.95;17.17;;;;;;;-144.73;100.00;54723.81;4981420;28;20485;-71
2023/12/16 10:14:49;;;;;;;45.72;17.95;;;;;;;-144.73;100.00;54717.66;4969511;28;20042;-70
2023/12/16 10:17:16;;;;;;;47.13;17.45;;;;;;;-144.73;100.00;54732.00;4974107;28;20030;-70
2023/12/16 10:19:45;;;;;;;54.90;20.65;;;;;;;-144.73;100.00;54719.69;4975316;28;20116;-70
2023/12/16 10:22:17;;;;;;;58.25;18.67;;;;;;;-144.73;100.00;54740.22;4978073;28;20026;-69
2023/12/16 10:24:44;;;;;;;52.75;20.80;;;;;;;-144.73;100.00;54699.16;4972460;28;20390;-69
2023/12/16 10:27:10;;;;;;;70.68;21.38;;;;;;;-144.73;100.00;54690.97;4977726;28;20022;-70
2023/12/16 10:29:35;;;;;;;69.30;23.38;;;;;;;-144.73;100.00;54709.44;4970913;28;20038;-70
2023/12/16 10:32:01;;;;;;;56.92;23.55;;;;;;;-144.73;100.00;54719.69;4975110;28;20485;-70
2023/12/16 10:34:30;;;;;;;73.43;22.48;;;;;;;-144.73;100.00;54715.59;4976192;28;20088;-69
2023/12/16 10:37:03;;;;;;;71.75;24.15;;;;;;;-144.73;100.00;54715.59;4967260;28;20030;-69
2023/12/16 10:39:29;;;;;;;69.75;23.80;;;;;;;-144.73;100.00;54721.75;4972191;28;20030;-69
2023/12/16 10:41:54;;;;;;;62.67;24.75;;;;;;;-144.73;100.00;54699.16;4969059;28;20034;-69
2023/12/16 10:44:20;;;;;;;60.83;21.58;;;;;;;-144.73;100.00;54732.00;4980223;28;20035;-69
2023/12/16 10:46:49;;;;;;;57.22;20.73;;;;;;;-144.73;100.00;54721.75;4970942;28;20482;-69
2023/12/16 10:49:16;;;;;;;53.03;21.30;;;;;;;-144.73;100.00;54719.69;4977123;28;20042;-69
2023/12/16 10:51:44;;;;;;;58.38;22.63;;;;;;;-144.73;100.00;54742.28;4966779;28;20037;-71
2023/12/16 10:54:17;;;;;;;53.47;22.58;;;;;;;-144.73;100.00;54740.22;4967650;28;20371;-69